Time;durP1;ratioP1;P1;durP2;ratioP2;P2;SDS_P1;SDS_P2;PMS_P1;PMS_P2;Temp;Humidity;BMP_temperature;BMP_pressure;BME280_temperature;BME280_humidity;BME280_pressure;Samples;Min_cycle;Max_cycle;Signal;HPM_P1;HPM_P2
2021/01/25 00:01:47;;;;;;;23.20;12.30;;;;;;;;;;5042409;28;20500;-50
2021/01/25 00:04:21;;;;;;;23.85;11.85;;;;;;;;;;5104415;27;20358;-52
2021/01/25 00:06:47;;;;;;;27.50;12.70;;;;;;;;;;5077081;28;20036;-50
2021/01/25 00:09:12;;;;;;;24.50;12.15;;;;;;;;;;5078367;28;20474;-50
2021/01/25 00:11:38;;;;;;;26.58;12.60;;;;;;;;;;5065415;28;20424;-50
2021/01/25 00:14:04;;;;;;;25.92;12.77;;;;;;;;;;5073125;28;20020;-49
2021/01/25 00:16:30;;;;;;;23.95;11.77;;;;;;;;;;5077646;28;20028;-49
2021/01/25 00:18:56;;;;;;;23.08;11.35;;;;;;;;;;5083720;28;20035;-49
2021/01/25 00:21:22;;;;;;;21.52;11.93;;;;;;;;;;5077052;28;20036;-49
2021/01/25 00:23:48;;;;;;;21.67;11.38;;;;;;;;;;5078921;28;20484;-53
2021/01/25 00:26:14;;;;;;;22.48;11.48;;;;;;;;;;5083160;28;20012;-51
2021/01/25 00:28:40;;;;;;;21.50;10.90;;;;;;;;;;5069993;28;20028;-51
2021/01/25 00:31:06;;;;;;;21.45;10.85;;;;;;;;;;5072842;28;20028;-50
2021/01/25 00:33:32;;;;;;;21.65;10.88;;;;;;;;;;5098283;28;20388;-54
2021/01/25 00:35:59;;;;;;;23.90;11.10;;;;;;;;;;5088508;28;20032;-53
2021/01/25 00:38:25;;;;;;;19.20;10.65;;;;;;;;;;5093003;28;20474;-52
2021/01/25 00:40:51;;;;;;;24.23;12.80;;;;;;;;;;5103803;28;20028;-50
2021/01/25 00:43:17;;;;;;;26.73;12.45;;;;;;;;;;5103852;28;20031;-50
2021/01/25 00:45:43;;;;;;;22.27;11.88;;;;;;;;;;5086762;28;20024;-53
2021/01/25 00:48:09;;;;;;;25.35;12.68;;;;;;;;;;5096381;28;20032;-50
2021/01/25 00:50:35;;;;;;;22.35;12.25;;;;;;;;;;5098827;28;20024;-51
2021/01/25 00:53:01;;;;;;;27.45;13.07;;;;;;;;;;5103543;28;20020;-53
2021/01/25 00:55:27;;;;;;;23.70;11.45;;;;;;;;;;5090873;28;20142;-53
2021/01/25 00:57:53;;;;;;;23.75;12.60;;;;;;;;;;5082279;28;20078;-49
2021/01/25 01:00:19;;;;;;;23.92;12.65;;;;;;;;;;5098028;28;20074;-49
2021/01/25 01:02:45;;;;;;;22.27;12.05;;;;;;;;;;5103221;28;20044;-50
2021/01/25 01:05:11;;;;;;;24.67;11.93;;;;;;;;;;5092699;28;20028;-49
2021/01/25 01:07:37;;;;;;;24.83;11.98;;;;;;;;;;5091118;28;20797;-48
2021/01/25 01:10:04;;;;;;;24.65;13.13;;;;;;;;;;5087645;28;20074;-50
2021/01/25 01:12:30;;;;;;;23.70;12.02;;;;;;;;;;5102980;28;20046;-48
2021/01/25 01:14:56;;;;;;;29.48;15.05;;;;;;;;;;5093732;28;20376;-50
2021/01/25 01:17:22;;;;;;;29.08;14.32;;;;;;;;;;5081387;28;20461;-49
2021/01/25 01:19:48;;;;;;;25.73;13.23;;;;;;;;;;5073421;28;20044;-49
2021/01/25 01:22:14;;;;;;;25.73;13.05;;;;;;;;;;5097311;28;20056;-51
2021/01/25 01:24:40;;;;;;;24.02;12.82;;;;;;;;;;5077457;28;20024;-50
2021/01/25 01:27:06;;;;;;;24.20;13.38;;;;;;;;;;5086484;28;20028;-50
2021/01/25 01:29:32;;;;;;;24.00;13.23;;;;;;;;;;5074765;28;20115;-48
2021/01/25 01:31:58;;;;;;;23.65;13.80;;;;;;;;;;5068387;28;20444;-53
2021/01/25 01:34:24;;;;;;;27.02;14.45;;;;;;;;;;5082331;28;20023;-53
2021/01/25 01:36:50;;;;;;;24.65;13.52;;;;;;;;;;5072786;28;20021;-52
2021/01/25 01:39:16;;;;;;;28.10;14.73;;;;;;;;;;5070949;28;20027;-55
2021/01/25 01:41:42;;;;;;;26.20;14.05;;;;;;;;;;5085018;28;20056;-52
2021/01/25 01:44:08;;;;;;;25.23;13.57;;;;;;;;;;5088415;28;20062;-52
2021/01/25 01:46:35;;;;;;;23.38;13.45;;;;;;;;;;5080306;28;20757;-53
2021/01/25 01:49:01;;;;;;;25.88;14.55;;;;;;;;;;5074473;28;20535;-51
2021/01/25 01:51:27;;;;;;;25.25;13.50;;;;;;;;;;5070684;28;20033;-54
2021/01/25 01:53:54;;;;;;;26.80;13.50;;;;;;;;;;5085061;28;20025;-49
2021/01/25 01:56:20;;;;;;;24.92;13.15;;;;;;;;;;5088802;28;20096;-50
2021/01/25 01:58:46;;;;;;;21.58;12.38;;;;;;;;;;5085528;28;20039;-53
2021/01/25 02:01:12;;;;;;;23.48;13.75;;;;;;;;;;5075850;28;20032;-49
2021/01/25 02:03:38;;;;;;;25.70;13.82;;;;;;;;;;5084177;28;20051;-51
2021/01/25 02:06:05;;;;;;;22.88;12.68;;;;;;;;;;5088812;28;20024;-48
2021/01/25 02:08:33;;;;;;;22.75;12.60;;;;;;;;;;5087289;28;20024;-52
2021/01/25 02:10:59;;;;;;;24.48;14.00;;;;;;;;;;5086680;28;20024;-51
2021/01/25 02:13:25;;;;;;;24.30;13.75;;;;;;;;;;5069527;28;20632;-51
2021/01/25 02:15:52;;;;;;;25.10;13.25;;;;;;;;;;5077865;28;20038;-50
2021/01/25 02:18:18;;;;;;;25.10;13.07;;;;;;;;;;5086595;28;20030;-50
2021/01/25 02:20:45;;;;;;;24.13;13.23;;;;;;;;;;5088517;28;20028;-49
2021/01/25 02:23:23;;;;;;;25.77;13.43;;;;;;;;;;5082442;28;20538;-53
2021/01/25 02:26:12;;;;;;;25.35;12.93;;;;;;;;;;5078817;28;20028;-49
2021/01/25 02:28:39;;;;;;;22.48;12.50;;;;;;;;;;5067595;28;20033;-50
2021/01/25 02:31:06;;;;;;;24.40;12.30;;;;;;;;;;5072833;28;20111;-50
2021/01/25 02:33:33;;;;;;;25.63;12.88;;;;;;;;;;5080179;28;20044;-54
2021/01/25 02:35:59;;;;;;;23.10;12.98;;;;;;;;;;5071392;28;20043;-48
2021/01/25 02:38:26;;;;;;;21.75;12.32;;;;;;;;;;5076526;28;20066;-52
2021/01/25 02:40:52;;;;;;;22.58;12.45;;;;;;;;;;5088141;28;20957;-49
2021/01/25 02:43:19;;;;;;;23.40;12.75;;;;;;;;;;5081971;28;20080;-50
2021/01/25 02:45:45;;;;;;;22.60;12.73;;;;;;;;;;5083155;28;20039;-51
2021/01/25 02:48:11;;;;;;;22.23;13.05;;;;;;;;;;5087958;28;20016;-49
2021/01/25 02:50:37;;;;;;;22.95;12.07;;;;;;;;;;5072049;28;20583;-52
2021/01/25 02:53:03;;;;;;;23.85;13.07;;;;;;;;;;5076438;28;20085;-52
2021/01/25 02:55:31;;;;;;;24.95;14.40;;;;;;;;;;5087564;28;20016;-52
2021/01/25 02:57:57;;;;;;;23.45;13.02;;;;;;;;;;5087628;28;20032;-53
2021/01/25 03:00:23;;;;;;;23.55;13.00;;;;;;;;;;5078969;28;20029;-53
2021/01/25 03:02:49;;;;;;;24.40;13.18;;;;;;;;;;5077011;28;20446;-53
2021/01/25 03:05:15;;;;;;;22.25;13.63;;;;;;;;;;5078144;28;20024;-51
2021/01/25 03:07:43;;;;;;;23.38;13.30;;;;;;;;;;5087537;28;20023;-51
2021/01/25 03:10:09;;;;;;;27.38;13.75;;;;;;;;;;5087196;28;20077;-53
2021/01/25 03:12:35;;;;;;;25.73;13.52;;;;;;;;;;5073952;28;20039;-50
2021/01/25 03:15:01;;;;;;;26.77;13.63;;;;;;;;;;5075934;28;20393;-48
2021/01/25 03:17:27;;;;;;;23.20;13.45;;;;;;;;;;5085990;28;20035;-51
2021/01/25 03:19:53;;;;;;;24.20;13.32;;;;;;;;;;5087170;28;20031;-51
2021/01/25 03:22:19;;;;;;;25.02;13.27;;;;;;;;;;5083433;28;20087;-52
2021/01/25 03:24:45;;;;;;;24.10;13.63;;;;;;;;;;5073131;28;20062;-51
2021/01/25 03:27:11;;;;;;;23.58;12.90;;;;;;;;;;5086364;28;20051;-49
2021/01/25 03:29:37;;;;;;;25.67;12.38;;;;;;;;;;5086928;28;20430;-49
2021/01/25 03:32:03;;;;;;;23.48;12.98;;;;;;;;;;5068388;28;20055;-49
2021/01/25 03:34:29;;;;;;;28.42;14.23;;;;;;;;;;5083174;28;20032;-49
2021/01/25 03:36:55;;;;;;;23.45;13.07;;;;;;;;;;5069436;28;20027;-50
2021/01/25 03:39:21;;;;;;;23.20;13.02;;;;;;;;;;5082382;28;20028;-53
2021/01/25 03:41:48;;;;;;;28.08;14.18;;;;;;;;;;5075557;28;20028;-49
2021/01/25 03:44:14;;;;;;;23.65;12.48;;;;;;;;;;5083015;28;20043;-49
2021/01/25 03:46:40;;;;;;;24.27;13.45;;;;;;;;;;5097175;28;20030;-49
2021/01/25 03:49:06;;;;;;;24.58;13.35;;;;;;;;;;5082518;28;20054;-48
2021/01/25 03:51:32;;;;;;;25.15;13.82;;;;;;;;;;5086833;28;20107;-53
2021/01/25 03:53:58;;;;;;;24.13;13.18;;;;;;;;;;5074871;28;20039;-53
2021/01/25 03:56:24;;;;;;;25.35;13.15;;;;;;;;;;5086663;28;20032;-52
2021/01/25 03:58:50;;;;;;;24.45;13.68;;;;;;;;;;5082429;28;20028;-51
2021/01/25 04:01:16;;;;;;;27.63;14.48;;;;;;;;;;5066984;28;20032;-52
2021/01/25 04:03:42;;;;;;;26.70;14.30;;;;;;;;;;5078432;28;20468;-53
2021/01/25 04:06:08;;;;;;;26.63;13.85;;;;;;;;;;5086678;28;20479;-51
2021/01/25 04:08:34;;;;;;;25.00;14.23;;;;;;;;;;5086436;28;20051;-50
2021/01/25 04:11:00;;;;;;;29.23;14.98;;;;;;;;;;5084641;28;20020;-49
2021/01/25 04:13:26;;;;;;;31.65;16.52;;;;;;;;;;5078629;28;20035;-52
2021/01/25 04:15:52;;;;;;;26.50;14.68;;;;;;;;;;5077016;28;20020;-52
2021/01/25 04:18:18;;;;;;;28.65;14.73;;;;;;;;;;5086549;28;20032;-51
2021/01/25 04:20:44;;;;;;;30.48;16.17;;;;;;;;;;5081195;28;20024;-49
2021/01/25 04:23:10;;;;;;;29.63;16.17;;;;;;;;;;5070127;28;20070;-48
2021/01/25 04:25:36;;;;;;;28.25;16.08;;;;;;;;;;5080518;28;20024;-50
2021/01/25 04:28:02;;;;;;;34.08;17.17;;;;;;;;;;5083248;28;20031;-51
2021/01/25 04:30:28;;;;;;;32.58;16.77;;;;;;;;;;5073198;28;20032;-50
2021/01/25 04:32:54;;;;;;;31.73;16.73;;;;;;;;;;5079645;28;20032;-49
2021/01/25 04:35:20;;;;;;;33.55;17.85;;;;;;;;;;5066174;28;20570;-51
2021/01/25 04:37:47;;;;;;;32.13;17.15;;;;;;;;;;5069981;28;20071;-51
2021/01/25 04:40:13;;;;;;;34.00;17.83;;;;;;;;;;5077498;28;20095;-48
2021/01/25 04:42:40;;;;;;;34.15;19.05;;;;;;;;;;5083570;28;20433;-49
2021/01/25 04:45:07;;;;;;;35.78;19.17;;;;;;;;;;5074928;28;20477;-49
2021/01/25 04:47:33;;;;;;;35.38;17.85;;;;;;;;;;5082691;28;20490;-51
2021/01/25 04:49:59;;;;;;;34.05;18.25;;;;;;;;;;5087898;28;20059;-50
2021/01/25 04:52:26;;;;;;;36.42;18.55;;;;;;;;;;5083463;28;20032;-50
2021/01/25 04:54:52;;;;;;;37.67;19.00;;;;;;;;;;5090289;28;20404;-55
2021/01/25 04:57:18;;;;;;;37.97;20.00;;;;;;;;;;5076262;28;20034;-53
2021/01/25 04:59:48;;;;;;;38.75;19.58;;;;;;;;;;5078413;28;20028;-51
2021/01/25 05:02:14;;;;;;;38.30;19.98;;;;;;;;;;5087426;28;20056;-54
2021/01/25 05:04:41;;;;;;;40.22;19.23;;;;;;;;;;5085597;28;20027;-50
2021/01/25 05:07:07;;;;;;;42.70;20.48;;;;;;;;;;5081990;28;20020;-53
2021/01/25 05:09:34;;;;;;;36.30;18.95;;;;;;;;;;5080677;28;20028;-51
2021/01/25 05:12:01;;;;;;;34.15;18.33;;;;;;;;;;5086042;28;20051;-49
2021/01/25 05:14:37;;;;;;;35.95;18.73;;;;;;;;;;5089649;28;20039;-49
2021/01/25 05:17:06;;;;;;;42.83;20.67;;;;;;;;;;5083378;28;20414;-51
2021/01/25 05:19:31;;;;;;;37.25;18.90;;;;;;;;;;5082575;28;20438;-52
2021/01/25 05:21:57;;;;;;;40.17;20.00;;;;;;;;;;5087189;28;20024;-52
2021/01/25 05:24:23;;;;;;;35.70;18.92;;;;;;;;;;5069156;28;20515;-49
2021/01/25 05:26:50;;;;;;;37.50;19.08;;;;;;;;;;5088284;28;20032;-51
2021/01/25 05:29:22;;;;;;;38.25;20.73;;;;;;;;;;5071334;28;20020;-49
2021/01/25 05:31:52;;;;;;;39.03;19.63;;;;;;;;;;5076726;28;20036;-52
2021/01/25 05:34:19;;;;;;;36.75;19.00;;;;;;;;;;5078618;28;20551;-49
2021/01/25 05:36:45;;;;;;;41.45;20.75;;;;;;;;;;5075497;28;20032;-51
2021/01/25 05:39:14;;;;;;;38.90;20.17;;;;;;;;;;5075011;28;20029;-52
2021/01/25 05:41:40;;;;;;;38.65;18.75;;;;;;;;;;5088862;28;20035;-49
2021/01/25 05:44:15;;;;;;;39.47;19.50;;;;;;;;;;5087759;28;20036;-51
2021/01/25 05:46:41;;;;;;;36.97;19.98;;;;;;;;;;5088875;28;20020;-51
2021/01/25 05:49:07;;;;;;;42.15;20.65;;;;;;;;;;5079025;28;20035;-49
2021/01/25 05:51:33;;;;;;;36.97;18.63;;;;;;;;;;5079573;28;20057;-51
2021/01/25 05:54:01;;;;;;;39.05;19.08;;;;;;;;;;5088564;28;20088;-51
2021/01/25 05:56:27;;;;;;;38.50;20.45;;;;;;;;;;5087982;28;20059;-51
2021/01/25 05:58:53;;;;;;;38.08;19.75;;;;;;;;;;5082969;28;20368;-49
2021/01/25 06:01:21;;;;;;;41.83;19.58;;;;;;;;;;5079434;28;20032;-50
2021/01/25 06:03:47;;;;;;;40.58;19.80;;;;;;;;;;5075115;28;20079;-49
2021/01/25 06:06:16;;;;;;;37.50;19.33;;;;;;;;;;5088645;28;20070;-50
2021/01/25 06:08:48;;;;;;;38.53;20.25;;;;;;;;;;5079006;28;20046;-48
2021/01/25 06:11:18;;;;;;;36.70;18.38;;;;;;;;;;5080275;28;20036;-49
2021/01/25 06:13:53;;;;;;;38.33;19.58;;;;;;;;;;5087532;28;20032;-50
2021/01/25 06:16:21;;;;;;;34.58;18.70;;;;;;;;;;5076585;28;20460;-50
2021/01/25 06:18:48;;;;;;;42.35;20.10;;;;;;;;;;5085107;28;20135;-48
2021/01/25 06:21:14;;;;;;;39.38;19.05;;;;;;;;;;5084385;28;20483;-51
2021/01/25 06:23:41;;;;;;;40.15;20.77;;;;;;;;;;5087798;28;20047;-54
2021/01/25 06:26:07;;;;;;;38.50;19.88;;;;;;;;;;5088528;28;20031;-50
2021/01/25 06:28:35;;;;;;;40.35;19.95;;;;;;;;;;5074305;28;20025;-52
2021/01/25 06:31:00;;;;;;;49.20;21.63;;;;;;;;;;5072007;28;20027;-49
2021/01/25 06:33:27;;;;;;;41.70;20.75;;;;;;;;;;5081026;28;20138;-50
2021/01/25 06:35:53;;;;;;;42.35;20.98;;;;;;;;;;5079049;28;20673;-53
2021/01/25 06:38:21;;;;;;;39.10;20.30;;;;;;;;;;5076123;28;20051;-48
2021/01/25 06:40:48;;;;;;;43.38;21.58;;;;;;;;;;5087808;28;20028;-51
2021/01/25 06:43:15;;;;;;;39.70;19.77;;;;;;;;;;5084602;28;20024;-49
2021/01/25 06:45:45;;;;;;;44.17;21.38;;;;;;;;;;5068526;28;20353;-49
2021/01/25 06:48:12;;;;;;;49.45;23.02;;;;;;;;;;5070829;28;20072;-48
2021/01/25 06:50:38;;;;;;;44.72;21.85;;;;;;;;;;5083557;28;20025;-51
2021/01/25 06:53:04;;;;;;;43.20;22.13;;;;;;;;;;5076897;28;20048;-48
2021/01/25 06:55:31;;;;;;;46.30;22.50;;;;;;;;;;5085377;28;20099;-48
2021/01/25 06:57:57;;;;;;;41.42;20.88;;;;;;;;;;5068219;28;20039;-52
2021/01/25 07:00:24;;;;;;;40.60;21.20;;;;;;;;;;5076443;28;20770;-51
2021/01/25 07:02:57;;;;;;;44.72;21.98;;;;;;;;;;5083828;28;20041;-50
2021/01/25 07:05:26;;;;;;;42.70;21.63;;;;;;;;;;5080546;28;20028;-51
2021/01/25 07:07:52;;;;;;;41.65;21.92;;;;;;;;;;5084309;28;20024;-51
2021/01/25 07:10:20;;;;;;;39.97;21.80;;;;;;;;;;5082966;28;20036;-49
2021/01/25 07:12:47;;;;;;;43.28;20.63;;;;;;;;;;5069057;28;20025;-50
2021/01/25 07:15:13;;;;;;;44.28;22.95;;;;;;;;;;5085309;28;20468;-53
2021/01/25 07:17:39;;;;;;;43.65;22.70;;;;;;;;;;5072388;28;20135;-48
2021/01/25 07:20:06;;;;;;;41.65;22.20;;;;;;;;;;5080381;28;20054;-50
2021/01/25 07:22:35;;;;;;;45.08;21.77;;;;;;;;;;5079947;28;20089;-48
2021/01/25 07:25:01;;;;;;;44.83;20.55;;;;;;;;;;5082994;28;20028;-48
2021/01/25 07:27:34;;;;;;;42.92;20.63;;;;;;;;;;5084839;28;20099;-49
2021/01/25 07:30:00;;;;;;;39.33;20.67;;;;;;;;;;5079167;28;20032;-49
2021/01/25 07:32:26;;;;;;;43.45;21.00;;;;;;;;;;5068737;28;20037;-48
2021/01/25 07:34:55;;;;;;;42.30;21.20;;;;;;;;;;5072891;28;20635;-51
2021/01/25 07:37:21;;;;;;;41.53;21.02;;;;;;;;;;5067208;28;20174;-51
2021/01/25 07:39:47;;;;;;;41.35;21.08;;;;;;;;;;5072565;28;20028;-50
2021/01/25 07:42:13;;;;;;;39.42;19.27;;;;;;;;;;5080482;28;20032;-54
2021/01/25 07:44:39;;;;;;;42.92;20.23;;;;;;;;;;5068716;28;20400;-50
2021/01/25 07:47:05;;;;;;;38.60;20.27;;;;;;;;;;5079946;28;20024;-49
2021/01/25 07:49:31;;;;;;;40.67;20.17;;;;;;;;;;5080185;28;20051;-52
2021/01/25 07:51:57;;;;;;;38.15;19.20;;;;;;;;;;5088997;28;20035;-49
2021/01/25 07:54:24;;;;;;;40.90;20.27;;;;;;;;;;5072377;28;20050;-49
2021/01/25 07:56:50;;;;;;;34.95;19.17;;;;;;;;;;5073370;28;20072;-49
2021/01/25 07:59:19;;;;;;;36.72;18.77;;;;;;;;;;5072813;28;20540;-48
2021/01/25 08:01:49;;;;;;;42.22;19.30;;;;;;;;;;5076162;28;20035;-49
2021/01/25 08:04:19;;;;;;;38.17;18.95;;;;;;;;;;5074801;28;20048;-53
2021/01/25 08:06:45;;;;;;;41.00;20.52;;;;;;;;;;5077427;28;20028;-52
2021/01/25 08:09:12;;;;;;;37.20;19.95;;;;;;;;;;5082435;28;20028;-48
2021/01/25 08:11:39;;;;;;;35.83;18.60;;;;;;;;;;5075034;28;20024;-48
2021/01/25 08:14:27;;;;;;;37.03;18.88;;;;;;;;;;5083561;28;20383;-48
2021/01/25 08:16:57;;;;;;;36.40;19.50;;;;;;;;;;5074813;28;20490;-48
2021/01/25 08:19:27;;;;;;;36.72;19.98;;;;;;;;;;5073647;28;20064;-47
2021/01/25 08:22:02;;;;;;;40.25;19.80;;;;;;;;;;5074871;28;20028;-48
2021/01/25 08:24:28;;;;;;;42.03;20.15;;;;;;;;;;5082862;28;20060;-49
2021/01/25 08:27:03;;;;;;;38.08;19.98;;;;;;;;;;5077004;28;20115;-48
2021/01/25 08:29:29;;;;;;;39.92;19.83;;;;;;;;;;5078631;28;20074;-48
2021/01/25 08:31:55;;;;;;;38.33;18.92;;;;;;;;;;5081619;28;20024;-49
2021/01/25 08:34:25;;;;;;;47.90;21.75;;;;;;;;;;5076666;28;20032;-50
2021/01/25 08:37:03;;;;;;;39.47;19.67;;;;;;;;;;5085397;28;20024;-48
2021/01/25 08:39:31;;;;;;;40.78;19.67;;;;;;;;;;5074138;28;20035;-50
2021/01/25 08:41:57;;;;;;;37.90;20.10;;;;;;;;;;5080683;28;20396;-48
2021/01/25 08:44:24;;;;;;;47.85;22.10;;;;;;;;;;5071441;28;20772;-50
2021/01/25 08:46:50;;;;;;;43.00;20.80;;;;;;;;;;5071749;28;20037;-49
2021/01/25 08:49:19;;;;;;;40.38;21.23;;;;;;;;;;5073880;28;20032;-48
2021/01/25 09:01:31;;;;;;;46.20;21.02;;;;;;;;;;5076356;28;20515;-49
2021/01/25 09:04:06;;;;;;;40.85;19.45;;;;;;;;;;5071464;28;20044;-48
2021/01/25 09:06:36;;;;;;;42.55;20.17;;;;;;;;;;5078425;28;20108;-48
2021/01/25 09:09:03;;;;;;;40.45;19.98;;;;;;;;;;5076719;28;20024;-50
2021/01/25 09:11:29;;;;;;;38.33;19.15;;;;;;;;;;5070096;28;20645;-49
2021/01/25 09:13:55;;;;;;;38.40;18.92;;;;;;;;;;5082644;28;20424;-49
2021/01/25 09:16:21;;;;;;;33.63;17.25;;;;;;;;;;5070842;28;20024;-50
2021/01/25 09:27:58;;;;;;;40.75;19.05;;;;;;;;;;5080720;28;20075;-48
2021/01/25 09:30:26;;;;;;;41.72;18.75;;;;;;;;;;5069643;28;20044;-48
2021/01/25 09:32:52;;;;;;;39.00;19.25;;;;;;;;;;5070063;28;20498;-48
2021/01/25 09:35:18;;;;;;;37.05;18.45;;;;;;;;;;5069575;28;20024;-48
2021/01/25 09:37:44;;;;;;;37.40;18.95;;;;;;;;;;5084460;28;20056;-51
2021/01/25 09:40:11;;;;;;;38.28;18.48;;;;;;;;;;5084913;28;20688;-54
2021/01/25 09:42:37;;;;;;;35.30;17.70;;;;;;;;;;5072744;28;20043;-48
2021/01/25 09:45:03;;;;;;;37.55;18.35;;;;;;;;;;5083020;28;20028;-49
2021/01/25 09:47:29;;;;;;;42.00;19.52;;;;;;;;;;5072751;28;20040;-50
2021/01/25 09:49:55;;;;;;;35.00;18.15;;;;;;;;;;5078323;28;20027;-49
2021/01/25 09:52:21;;;;;;;36.45;17.67;;;;;;;;;;5080269;28;20399;-49
2021/01/25 09:54:47;;;;;;;33.92;17.45;;;;;;;;;;5071088;28;20016;-49
2021/01/25 09:57:13;;;;;;;32.05;16.13;;;;;;;;;;5072893;28;20035;-52
2021/01/25 09:59:39;;;;;;;30.60;15.07;;;;;;;;;;5075996;28;20073;-50
2021/01/25 10:02:05;;;;;;;30.65;14.40;;;;;;;;;;5077254;28;20016;-50
2021/01/25 10:04:31;;;;;;;30.67;13.73;;;;;;;;;;5077738;28;20431;-52
2021/01/25 10:06:57;;;;;;;30.08;14.68;;;;;;;;;;5085152;28;20023;-50
2021/01/25 10:09:23;;;;;;;31.30;14.90;;;;;;;;;;5082615;28;20055;-51
2021/01/25 10:11:49;;;;;;;28.45;14.65;;;;;;;;;;5085989;28;20461;-53
2021/01/25 10:14:15;;;;;;;29.33;13.45;;;;;;;;;;5082725;28;20032;-52
2021/01/25 10:16:41;;;;;;;23.90;12.93;;;;;;;;;;5086060;28;20040;-50
2021/01/25 10:19:07;;;;;;;33.00;14.77;;;;;;;;;;5085060;28;20043;-52
2021/01/25 10:21:33;;;;;;;26.42;14.20;;;;;;;;;;5086163;28;20137;-50
2021/01/25 10:23:59;;;;;;;27.70;13.50;;;;;;;;;;5084702;28;20567;-50
2021/01/25 10:26:25;;;;;;;31.95;14.55;;;;;;;;;;5085837;28;20500;-49
2021/01/25 10:28:51;;;;;;;27.10;13.80;;;;;;;;;;5084770;28;21292;-52
2021/01/25 10:31:17;;;;;;;26.50;13.25;;;;;;;;;;5082846;28;20394;-49
2021/01/25 10:33:43;;;;;;;27.63;13.77;;;;;;;;;;5076413;28;20024;-49
2021/01/25 10:36:09;;;;;;;35.53;14.15;;;;;;;;;;5086088;28;20039;-48
2021/01/25 10:38:36;;;;;;;28.45;13.88;;;;;;;;;;5084346;28;20028;-49
2021/01/25 10:41:01;;;;;;;26.73;14.43;;;;;;;;;;5085933;28;20035;-53
2021/01/25 10:43:27;;;;;;;31.27;15.93;;;;;;;;;;5085558;28;20610;-51
2021/01/25 10:45:53;;;;;;;27.23;15.02;;;;;;;;;;5079317;28;20442;-50
2021/01/25 10:48:19;;;;;;;33.42;15.82;;;;;;;;;;5081053;28;20028;-48
2021/01/25 10:50:46;;;;;;;30.42;15.05;;;;;;;;;;5083445;28;20073;-51
2021/01/25 10:53:12;;;;;;;31.02;15.90;;;;;;;;;;5079880;28;20036;-48
2021/01/25 10:55:38;;;;;;;28.17;14.45;;;;;;;;;;5083297;28;20055;-49
2021/01/25 10:58:04;;;;;;;33.60;15.15;;;;;;;;;;5085364;28;20479;-53
2021/01/25 11:00:30;;;;;;;32.90;15.65;;;;;;;;;;5081374;28;20376;-52
2021/01/25 11:02:56;;;;;;;32.97;15.27;;;;;;;;;;5084072;28;20128;-53
2021/01/25 11:05:25;;;;;;;29.25;15.05;;;;;;;;;;5082147;28;20064;-52
2021/01/25 11:07:51;;;;;;;31.33;15.13;;;;;;;;;;5079681;28;20032;-53
2021/01/25 11:10:19;;;;;;;31.83;15.85;;;;;;;;;;5075188;28;20503;-50
2021/01/25 11:12:45;;;;;;;29.98;15.45;;;;;;;;;;5086680;28;20387;-50
2021/01/25 11:15:12;;;;;;;28.50;14.80;;;;;;;;;;5085546;28;20035;-53
2021/01/25 11:17:38;;;;;;;35.15;16.88;;;;;;;;;;5083701;28;20647;-51
2021/01/25 11:20:05;;;;;;;29.27;15.25;;;;;;;;;;5084338;28;20082;-58
2021/01/25 11:22:31;;;;;;;30.70;15.70;;;;;;;;;;5082101;28;20032;-51
2021/01/25 11:24:57;;;;;;;31.02;16.17;;;;;;;;;;5078433;28;20028;-48
2021/01/25 11:27:23;;;;;;;29.40;14.68;;;;;;;;;;5080020;28;20508;-61
2021/01/25 11:29:49;;;;;;;32.70;15.52;;;;;;;;;;5080926;28;20020;-49
2021/01/25 11:32:15;;;;;;;28.58;14.98;;;;;;;;;;5077498;28;20093;-51
2021/01/25 11:34:41;;;;;;;28.30;15.10;;;;;;;;;;5073697;28;20712;-49
2021/01/25 11:37:07;;;;;;;31.52;15.43;;;;;;;;;;5074336;28;20032;-46
2021/01/25 11:39:34;;;;;;;32.10;15.10;;;;;;;;;;5082671;28;20585;-48
2021/01/25 11:41:59;;;;;;;30.45;16.05;;;;;;;;;;5082730;28;20388;-48
2021/01/25 11:44:26;;;;;;;30.48;16.10;;;;;;;;;;5085086;28;20036;-49
2021/01/25 11:46:52;;;;;;;31.20;14.82;;;;;;;;;;5083613;28;20028;-51
2021/01/25 11:49:18;;;;;;;28.40;14.77;;;;;;;;;;5075979;28;20028;-50
2021/01/25 11:51:46;;;;;;;29.55;15.32;;;;;;;;;;5071843;28;20476;-51
2021/01/25 11:54:13;;;;;;;31.50;15.80;;;;;;;;;;5081790;28;20062;-47
2021/01/25 11:56:39;;;;;;;28.95;15.68;;;;;;;;;;5086108;28;20107;-48
2021/01/25 11:59:05;;;;;;;30.77;16.55;;;;;;;;;;5080649;28;20067;-49
2021/01/25 12:01:31;;;;;;;30.85;14.85;;;;;;;;;;5075643;28;20107;-47
2021/01/25 12:03:57;;;;;;;28.90;14.95;;;;;;;;;;5076293;28;20055;-48
2021/01/25 12:06:23;;;;;;;32.85;16.35;;;;;;;;;;5090742;28;20024;-50
2021/01/25 12:08:49;;;;;;;27.52;15.02;;;;;;;;;;5081573;28;20434;-49
2021/01/25 12:11:15;;;;;;;33.65;16.20;;;;;;;;;;5075645;28;20018;-51
2021/01/25 12:13:41;;;;;;;28.13;14.60;;;;;;;;;;5082316;28;20106;-49
2021/01/25 12:16:10;;;;;;;28.05;15.00;;;;;;;;;;5086304;28;20020;-49
2021/01/25 12:18:36;;;;;;;29.67;15.00;;;;;;;;;;5076954;28;20908;-53
2021/01/25 12:21:02;;;;;;;29.65;15.52;;;;;;;;;;5086938;28;20032;-49
2021/01/25 12:23:28;;;;;;;34.38;15.68;;;;;;;;;;5077594;28;20059;-48
2021/01/25 12:25:54;;;;;;;27.20;14.45;;;;;;;;;;5084424;28;20708;-52
2021/01/25 12:28:20;;;;;;;28.20;15.73;;;;;;;;;;5082799;28;20028;-53
2021/01/25 12:30:46;;;;;;;34.63;16.67;;;;;;;;;;5078616;28;20036;-49
2021/01/25 12:33:12;;;;;;;29.83;14.85;;;;;;;;;;5079697;28;20033;-49
2021/01/25 12:35:38;;;;;;;34.03;16.15;;;;;;;;;;5080009;28;20031;-49
2021/01/25 12:38:06;;;;;;;34.42;17.08;;;;;;;;;;5083705;28;20016;-51
2021/01/25 12:40:32;;;;;;;30.90;15.10;;;;;;;;;;5085173;28;20073;-48
2021/01/25 12:42:58;;;;;;;27.80;14.18;;;;;;;;;;5086110;28;20031;-51
2021/01/25 12:45:25;;;;;;;26.80;14.15;;;;;;;;;;5084394;28;20032;-49
2021/01/25 12:47:51;;;;;;;27.38;14.15;;;;;;;;;;5086286;28;20020;-52
2021/01/25 12:50:17;;;;;;;23.70;14.15;;;;;;;;;;5084614;28;20127;-48
2021/01/25 12:52:44;;;;;;;29.05;13.93;;;;;;;;;;5082799;28;20020;-49
2021/01/25 12:55:10;;;;;;;23.85;13.18;;;;;;;;;;5075585;28;20032;-49
2021/01/25 12:57:40;;;;;;;25.20;13.25;;;;;;;;;;5080259;28;20040;-50
2021/01/25 13:00:09;;;;;;;23.02;11.93;;;;;;;;;;5067749;28;20081;-50
2021/01/25 13:02:35;;;;;;;22.80;11.35;;;;;;;;;;5080803;28;20048;-53
2021/01/25 13:05:01;;;;;;;19.55;10.57;;;;;;;;;;5068870;28;20024;-50
2021/01/25 13:07:27;;;;;;;20.55;10.90;;;;;;;;;;5071876;28;20078;-53
2021/01/25 13:09:53;;;;;;;19.83;10.02;;;;;;;;;;5077737;28;20418;-48
2021/01/25 13:12:19;;;;;;;20.88;10.80;;;;;;;;;;5072636;28;20365;-50
2021/01/25 13:14:45;;;;;;;20.75;10.77;;;;;;;;;;5069164;28;20071;-51
2021/01/25 13:17:11;;;;;;;19.10;9.50;;;;;;;;;;5074168;28;20029;-50
2021/01/25 13:19:37;;;;;;;21.17;10.77;;;;;;;;;;5080162;28;20024;-50
2021/01/25 13:22:03;;;;;;;19.45;10.50;;;;;;;;;;5079566;28;20043;-50
2021/01/25 13:24:28;;;;;;;17.35;10.10;;;;;;;;;;5084084;28;20454;-50
2021/01/25 13:26:54;;;;;;;20.75;10.43;;;;;;;;;;5080983;28;20379;-50
2021/01/25 13:29:20;;;;;;;19.45;10.85;;;;;;;;;;5077185;28;20359;-50
2021/01/25 13:31:46;;;;;;;18.63;10.88;;;;;;;;;;5081698;28;20480;-48
2021/01/25 13:34:12;;;;;;;19.33;9.70;;;;;;;;;;5068642;28;20032;-51
2021/01/25 13:36:38;;;;;;;22.70;11.27;;;;;;;;;;5075041;28;20023;-52
2021/01/25 13:39:04;;;;;;;19.58;11.20;;;;;;;;;;5075526;28;20037;-50
2021/01/25 13:41:30;;;;;;;23.88;12.20;;;;;;;;;;5071006;28;20035;-52
2021/01/25 13:43:56;;;;;;;24.20;12.40;;;;;;;;;;5071366;28;20037;-50
2021/01/25 13:46:22;;;;;;;27.65;12.10;;;;;;;;;;5072338;28;20032;-52
2021/01/25 13:48:48;;;;;;;27.33;12.50;;;;;;;;;;5073530;28;20058;-51
2021/01/25 13:51:14;;;;;;;26.58;12.60;;;;;;;;;;5076339;28;20023;-52
2021/01/25 13:53:41;;;;;;;26.80;13.15;;;;;;;;;;5073993;28;20033;-51
2021/01/25 13:56:07;;;;;;;24.35;12.88;;;;;;;;;;5084863;28;20077;-51
2021/01/25 13:58:33;;;;;;;30.45;13.10;;;;;;;;;;5072138;28;20093;-49
2021/01/25 14:00:59;;;;;;;26.02;12.70;;;;;;;;;;5078177;28;20032;-52
2021/01/25 14:03:25;;;;;;;26.45;12.98;;;;;;;;;;5073444;28;20073;-49
2021/01/25 14:05:51;;;;;;;24.65;12.82;;;;;;;;;;5066617;28;20028;-48
2021/01/25 14:08:17;;;;;;;31.67;13.82;;;;;;;;;;5072995;28;20412;-49
2021/01/25 14:10:43;;;;;;;28.15;13.63;;;;;;;;;;5081658;28;20016;-48
2021/01/25 14:13:09;;;;;;;31.45;14.57;;;;;;;;;;5077094;28;20028;-52
2021/01/25 14:15:35;;;;;;;27.77;14.68;;;;;;;;;;5081074;28;20541;-48
2021/01/25 14:18:01;;;;;;;25.58;12.95;;;;;;;;;;5088872;28;20142;-54
2021/01/25 14:20:27;;;;;;;31.45;13.27;;;;;;;;;;5076715;28;20039;-52
2021/01/25 14:22:53;;;;;;;24.42;13.43;;;;;;;;;;5077968;28;20246;-49
2021/01/25 14:25:20;;;;;;;25.98;13.25;;;;;;;;;;5074338;28;20035;-51
2021/01/25 14:27:46;;;;;;;26.40;14.00;;;;;;;;;;5084486;28;20028;-49
2021/01/25 14:30:16;;;;;;;29.98;14.95;;;;;;;;;;5078482;28;20039;-52
2021/01/25 14:32:42;;;;;;;30.05;14.90;;;;;;;;;;5089007;28;20046;-49